createdAt,value
2023-04-16T00:00:21.011Z,12.10
2023-04-16T00:02:49.144Z,11.90
2023-04-16T00:05:17.350Z,12.10
2023-04-16T00:07:46.901Z,12.30
2023-04-16T00:10:15.372Z,12.00
2023-04-16T00:12:43.434Z,11.80
2023-04-16T00:15:11.887Z,11.80
2023-04-16T00:17:39.933Z,12.20
2023-04-16T00:20:10.060Z,12.40
2023-04-16T00:22:38.172Z,12.20
2023-04-16T00:25:08.219Z,12.40
2023-04-16T00:27:36.341Z,12.30
2023-04-16T00:30:04.520Z,12.40
2023-04-16T00:32:32.576Z,11.90
2023-04-16T00:35:00.620Z,12.20
2023-04-16T00:37:28.693Z,12.20
2023-04-16T00:39:56.770Z,12.10
2023-04-16T00:42:26.459Z,12.00
2023-04-16T00:44:54.539Z,12.00
2023-04-16T00:47:22.627Z,11.90
2023-04-16T00:49:50.754Z,12.20
2023-04-16T00:52:18.818Z,12.40
2023-04-16T00:54:47.198Z,12.30
2023-04-16T00:57:15.340Z,12.20
2023-04-16T00:59:44.852Z,12.20
2023-04-16T01:02:13.090Z,12.40
2023-04-16T01:04:41.402Z,12.20
2023-04-16T01:07:09.475Z,12.00
2023-04-16T01:09:37.569Z,12.40
2023-04-16T01:12:05.743Z,12.40
2023-04-16T01:14:36.564Z,12.20
2023-04-16T01:17:06.057Z,12.10
2023-04-16T01:19:36.347Z,12.20
2023-04-16T01:22:05.954Z,12.50
2023-04-16T01:24:35.026Z,12.40
2023-04-16T01:27:03.125Z,12.20
2023-04-16T01:29:31.339Z,11.80
2023-04-16T01:31:59.379Z,11.70
2023-04-16T01:34:27.440Z,12.50
2023-04-16T01:36:55.606Z,12.50
2023-04-16T01:39:25.115Z,12.70
2023-04-16T01:41:53.209Z,12.20
2023-04-16T01:44:21.885Z,12.20
2023-04-16T01:46:50.018Z,12.70
2023-04-16T01:49:18.186Z,12.20
2023-04-16T01:51:46.269Z,12.40
2023-04-16T01:54:14.356Z,12.50
2023-04-16T01:56:43.897Z,12.20
2023-04-16T01:59:12.428Z,12.40
2023-04-16T02:01:40.631Z,12.40
2023-04-16T02:04:08.748Z,12.00
2023-04-16T02:06:36.790Z,12.00
2023-04-16T02:09:05.070Z,11.80
2023-04-16T02:11:33.181Z,11.80
2023-04-16T02:14:02.781Z,12.00
2023-04-16T02:16:31.213Z,12.30
2023-04-16T02:18:59.439Z,11.70
2023-04-16T02:21:27.570Z,12.00
2023-04-16T02:23:55.743Z,11.50
2023-04-16T02:26:23.802Z,11.80
2023-04-16T02:28:51.983Z,12.00
2023-04-16T02:31:22.807Z,11.80
2023-04-16T02:33:50.936Z,12.00
2023-04-16T02:36:19.016Z,12.30
2023-04-16T02:38:47.063Z,12.30
2023-04-16T02:41:15.176Z,12.50
2023-04-16T02:43:43.312Z,11.70
2023-04-16T02:46:11.502Z,11.90
2023-04-16T02:48:41.188Z,12.30
2023-04-16T02:51:09.289Z,12.00
2023-04-16T02:53:37.374Z,11.80
2023-04-16T02:56:06.070Z,11.30
2023-04-16T02:58:34.158Z,12.00
2023-04-16T03:01:02.327Z,11.70
2023-04-16T03:03:30.480Z,11.70
2023-04-16T03:05:59.957Z,11.60
2023-04-16T03:08:28.143Z,11.70
2023-04-16T03:10:56.347Z,11.50
2023-04-16T03:13:24.373Z,11.70
2023-04-16T03:15:52.509Z,11.80
2023-04-16T03:18:20.678Z,12.10
2023-04-16T03:20:53.160Z,11.80
2023-04-16T03:23:22.580Z,11.80
2023-04-16T03:25:51.165Z,11.90
2023-04-16T03:28:19.211Z,11.90
2023-04-16T03:30:52.520Z,12.20
2023-04-16T03:33:20.747Z,12.50
2023-04-16T03:35:48.910Z,12.30
2023-04-16T03:38:16.972Z,12.00
2023-04-16T03:40:46.790Z,12.00
2023-04-16T03:43:14.841Z,12.10
2023-04-16T03:45:45.955Z,11.90
2023-04-16T03:48:14.039Z,12.00
2023-04-16T03:50:42.063Z,12.00
2023-04-16T03:53:10.098Z,12.10
2023-04-16T03:55:38.163Z,12.20
2023-04-16T03:58:07.568Z,11.80
2023-04-16T04:00:35.705Z,11.90
2023-04-16T04:03:04.128Z,11.70
2023-04-16T04:05:32.375Z,11.90
2023-04-16T04:08:00.451Z,12.00
2023-04-16T04:10:28.517Z,12.00
2023-04-16T04:12:56.557Z,11.70
2023-04-16T04:15:25.948Z,11.60
2023-04-16T04:17:54.080Z,12.10
2023-04-16T04:20:22.164Z,11.80
2023-04-16T04:22:50.859Z,12.00
2023-04-16T04:25:19.086Z,12.20
2023-04-16T04:27:47.194Z,11.90
2023-04-16T04:30:15.519Z,12.10
2023-04-16T04:32:44.934Z,11.70
2023-04-16T04:35:13.046Z,11.50
2023-04-16T04:37:41.146Z,12.00
2023-04-16T04:40:10.583Z,12.20
2023-04-16T04:42:39.243Z,12.50
2023-04-16T04:45:08.580Z,12.40
2023-04-16T04:47:36.669Z,12.40
2023-04-16T04:50:07.190Z,12.50
2023-04-16T04:52:35.268Z,12.00
2023-04-16T04:55:03.396Z,12.00
2023-04-16T04:57:31.544Z,11.90
2023-04-16T04:59:59.658Z,11.70
2023-04-16T05:02:27.885Z,12.00
2023-04-16T05:04:56.119Z,12.30
2023-04-16T05:07:25.632Z,12.20
2023-04-16T05:09:53.710Z,12.00
2023-04-16T05:12:21.711Z,12.30
2023-04-16T05:14:49.782Z,12.30
2023-04-16T05:17:18.058Z,11.70
2023-04-16T05:19:46.195Z,12.00
2023-04-16T05:22:14.261Z,12.30
2023-04-16T05:24:43.817Z,12.40
2023-04-16T05:27:11.916Z,12.50
2023-04-16T05:29:40.029Z,12.10
2023-04-16T05:32:08.267Z,12.00
2023-04-16T05:34:39.144Z,12.20
2023-04-16T05:37:07.312Z,12.60
2023-04-16T05:39:36.949Z,12.50
2023-04-16T05:42:06.539Z,12.70
2023-04-16T05:44:35.098Z,12.90
2023-04-16T05:47:03.141Z,12.70
2023-04-16T05:49:31.307Z,12.60
2023-04-16T05:52:00.021Z,12.20
2023-04-16T05:54:30.160Z,12.20
2023-04-16T05:56:59.215Z,12.10
2023-04-16T05:59:29.348Z,12.30
2023-04-16T06:01:58.036Z,12.40
2023-04-16T06:04:26.537Z,12.20
2023-04-16T06:07:00.515Z,12.50
2023-04-16T06:09:28.915Z,12.60
2023-04-16T06:11:58.035Z,12.10
2023-04-16T06:14:26.153Z,12.40
2023-04-16T06:16:56.506Z,12.60
2023-04-16T06:19:25.142Z,12.50
2023-04-16T06:21:53.788Z,12.50
2023-04-16T06:24:22.274Z,12.70
2023-04-16T06:26:50.293Z,12.80
2023-04-16T06:29:18.375Z,12.70
2023-04-16T06:31:46.503Z,12.80
2023-04-16T06:34:16.543Z,12.70
2023-04-16T06:36:49.215Z,12.80
2023-04-16T06:39:18.638Z,13.10
2023-04-16T06:41:47.024Z,13.00
2023-04-16T06:44:15.447Z,12.80
2023-04-16T06:46:43.607Z,13.20
2023-04-16T06:49:12.032Z,13.00
2023-04-16T06:51:41.960Z,12.50
2023-04-16T06:54:10.105Z,13.00
2023-04-16T06:56:38.876Z,13.30
2023-04-16T06:59:08.577Z,12.80
2023-04-16T07:01:37.284Z,12.70
2023-04-16T07:04:06.242Z,12.70
2023-04-16T07:06:34.773Z,12.40
2023-04-16T07:09:04.636Z,12.40
2023-04-16T07:11:33.535Z,12.40
2023-04-16T07:14:01.796Z,12.40
2023-04-16T07:16:30.154Z,12.30
2023-04-16T07:18:58.296Z,12.40
2023-04-16T07:21:26.352Z,12.20
2023-04-16T07:23:54.433Z,12.30
2023-04-16T07:26:23.887Z,12.30
2023-04-16T07:28:52.043Z,12.40
2023-04-16T07:31:20.111Z,12.50
2023-04-16T07:33:48.192Z,12.60
2023-04-16T07:36:16.246Z,12.50
2023-04-16T07:38:44.299Z,12.00
2023-04-16T07:41:12.324Z,12.50
2023-04-16T07:43:41.738Z,12.50
2023-04-16T07:46:10.625Z,12.40
2023-04-16T07:48:39.560Z,12.20
2023-04-16T07:51:08.609Z,11.70
2023-04-16T07:53:37.659Z,12.40
2023-04-16T07:56:07.082Z,12.40
2023-04-16T07:58:35.690Z,12.30
2023-04-16T08:01:05.715Z,12.70
2023-04-16T08:03:34.242Z,12.50
2023-04-16T08:06:06.042Z,12.20
2023-04-16T08:08:49.744Z,12.30
2023-04-16T08:11:25.730Z,12.60
2023-04-16T08:14:02.690Z,12.40
2023-04-16T08:16:39.375Z,12.40
2023-04-16T08:19:13.392Z,12.50
2023-04-16T08:21:50.957Z,11.70
2023-04-16T08:24:30.837Z,12.40
2023-04-16T08:27:15.407Z,12.30
2023-04-16T08:29:50.216Z,12.50
2023-04-16T08:32:29.570Z,12.50
2023-04-16T08:35:03.136Z,12.20
2023-04-16T08:37:34.361Z,12.70
2023-04-16T08:40:04.875Z,12.50
2023-04-16T08:42:43.651Z,12.30
2023-04-16T08:45:17.824Z,12.30
2023-04-16T08:47:49.106Z,12.60
2023-04-16T08:50:20.701Z,12.00
2023-04-16T08:52:56.649Z,12.40
2023-04-16T08:55:26.651Z,12.10
2023-04-16T08:57:59.679Z,11.70
2023-04-16T09:00:31.759Z,12.30
2023-04-16T09:03:07.034Z,12.50
2023-04-16T09:05:42.014Z,12.80
2023-04-16T09:08:20.421Z,12.60
2023-04-16T09:10:55.683Z,12.50
2023-04-16T09:13:32.646Z,12.30
2023-04-16T09:16:11.572Z,12.60
2023-04-16T09:18:48.035Z,12.60
2023-04-16T09:21:32.506Z,13.00
2023-04-16T09:24:07.851Z,13.00
2023-04-16T09:26:52.028Z,13.10
2023-04-16T09:29:57.575Z,12.90
2023-04-16T09:32:35.438Z,13.00
2023-04-16T09:35:07.859Z,12.80
2023-04-16T09:37:52.364Z,12.90
2023-04-16T09:40:23.397Z,12.80
2023-04-16T09:42:51.696Z,12.30
2023-04-16T09:45:19.811Z,12.50
2023-04-16T09:47:47.967Z,12.80
2023-04-16T09:50:18.925Z,12.30
2023-04-16T09:52:49.854Z,12.60
2023-04-16T09:55:19.240Z,12.50
2023-04-16T09:57:47.339Z,12.70
2023-04-16T10:00:19.526Z,12.30
2023-04-16T10:02:50.630Z,12.80
2023-04-16T10:05:20.925Z,12.70
2023-04-16T10:07:49.567Z,12.70
2023-04-16T10:10:17.787Z,12.70
2023-04-16T10:12:45.973Z,12.80
2023-04-16T10:15:14.042Z,13.00
2023-04-16T10:17:42.307Z,12.40
2023-04-16T10:20:10.867Z,12.30
2023-04-16T10:22:40.295Z,13.00
2023-04-16T10:25:09.131Z,12.60
2023-04-16T10:27:37.920Z,12.40
2023-04-16T10:30:06.856Z,12.20
2023-04-16T10:32:35.132Z,12.10
2023-04-16T10:35:03.247Z,12.30
2023-04-16T10:37:32.077Z,12.60
2023-04-16T10:40:01.807Z,13.10
2023-04-16T10:42:29.931Z,12.90
2023-04-16T10:45:00.984Z,12.50
2023-04-16T10:47:29.900Z,12.40
2023-04-16T10:49:58.438Z,12.40
2023-04-16T10:52:26.619Z,12.20
2023-04-16T10:54:58.927Z,12.30
2023-04-16T10:57:29.470Z,12.40
2023-04-16T10:59:59.842Z,11.90
2023-04-16T11:02:30.308Z,12.10
2023-04-16T11:04:58.673Z,12.10
2023-04-16T11:07:34.251Z,12.40
2023-04-16T11:10:04.311Z,12.50
2023-04-16T11:12:38.089Z,12.50
2023-04-16T11:15:07.588Z,12.20
2023-04-16T11:17:39.200Z,12.80
2023-04-16T11:20:18.668Z,12.70
2023-04-16T11:22:48.569Z,12.60
2023-04-16T11:25:21.242Z,12.30
2023-04-16T11:27:51.189Z,12.50
2023-04-16T11:30:19.666Z,12.50
2023-04-16T11:32:48.013Z,12.70
2023-04-16T11:35:17.266Z,13.00
2023-04-16T11:37:45.548Z,12.80
2023-04-16T11:40:14.279Z,12.40
2023-04-16T11:42:42.845Z,12.50
2023-04-16T11:45:13.575Z,12.40
2023-04-16T11:47:45.939Z,12.70
2023-04-16T11:50:22.063Z,12.70
2023-04-16T11:52:50.781Z,12.70
2023-04-16T11:55:19.183Z,12.90
2023-04-16T11:57:47.439Z,12.90
2023-04-16T12:00:18.125Z,12.50
2023-04-16T12:02:47.336Z,12.40
2023-04-16T12:05:28.689Z,12.20
2023-04-16T12:07:57.076Z,12.90
2023-04-16T12:10:26.418Z,13.30
2023-04-16T12:12:54.956Z,13.20
2023-04-16T12:15:24.749Z,13.40
2023-04-16T12:17:54.611Z,13.30
2023-04-16T12:20:22.989Z,13.00
2023-04-16T12:22:52.814Z,12.70
2023-04-16T12:25:21.199Z,12.70
2023-04-16T12:27:53.324Z,13.10
2023-04-16T12:30:24.396Z,13.10
2023-04-16T12:32:53.270Z,13.20
2023-04-16T12:35:31.264Z,13.10
2023-04-16T12:37:59.588Z,13.10
2023-04-16T12:40:27.969Z,13.10
2023-04-16T12:42:56.217Z,13.40
2023-04-16T12:45:26.235Z,13.50
2023-04-16T12:47:54.537Z,13.30
2023-04-16T12:50:22.774Z,13.00
2023-04-16T12:52:51.037Z,12.90
2023-04-16T12:55:19.612Z,13.30
2023-04-16T12:57:49.131Z,13.20
2023-04-16T13:00:17.787Z,13.10
2023-04-16T13:02:47.440Z,13.40
2023-04-16T13:05:16.689Z,13.70
2023-04-16T13:07:44.865Z,13.60
2023-04-16T13:10:13.408Z,13.50
2023-04-16T13:12:46.700Z,13.70
2023-04-16T13:15:14.883Z,13.60
2023-04-16T13:17:43.047Z,14.00
2023-04-16T13:20:13.032Z,13.80
2023-04-16T13:22:41.423Z,14.00
2023-04-16T13:25:10.654Z,13.70
2023-04-16T13:27:38.725Z,13.90
2023-04-16T13:30:08.314Z,14.00
2023-04-16T13:32:36.567Z,13.90
2023-04-16T13:35:05.204Z,14.00
2023-04-16T13:37:35.618Z,13.80
2023-04-16T13:40:03.971Z,13.50
2023-04-16T13:42:32.597Z,13.70
2023-04-16T13:45:01.492Z,14.00
2023-04-16T13:47:29.821Z,14.00
2023-04-16T13:49:58.983Z,14.20
2023-04-16T13:52:27.425Z,14.20
2023-04-16T13:54:58.910Z,13.80
2023-04-16T13:57:28.225Z,13.80
2023-04-16T13:59:56.633Z,13.80
2023-04-16T14:02:26.308Z,13.70
2023-04-16T14:04:54.854Z,13.60
2023-04-16T14:07:26.318Z,13.90
2023-04-16T14:09:54.561Z,14.00
2023-04-16T14:12:24.154Z,14.00
2023-04-16T14:14:52.343Z,14.00
2023-04-16T14:17:20.535Z,14.00
2023-04-16T14:19:48.779Z,14.10
2023-04-16T14:22:18.114Z,14.30
2023-04-16T14:24:46.352Z,14.20
2023-04-16T14:27:14.558Z,14.00
2023-04-16T14:29:46.527Z,14.00
2023-04-16T14:32:14.701Z,14.00
2023-04-16T14:34:42.982Z,13.70
2023-04-16T14:37:11.494Z,13.70
2023-04-16T14:39:39.903Z,13.50
2023-04-16T14:42:08.017Z,13.30
2023-04-16T14:44:36.307Z,13.40
2023-04-16T14:47:06.156Z,13.20
2023-04-16T14:49:34.928Z,13.00
2023-04-16T14:52:05.757Z,13.00
2023-04-16T14:54:34.411Z,13.00
2023-04-16T14:57:03.527Z,13.20
2023-04-16T14:59:32.500Z,13.20
2023-04-16T15:02:01.210Z,13.00
2023-04-16T15:04:31.531Z,13.30
2023-04-16T15:07:00.289Z,13.50
2023-04-16T15:09:28.563Z,13.50
2023-04-16T15:11:57.070Z,13.30
2023-04-16T15:14:25.344Z,13.30
2023-04-16T15:16:53.537Z,13.20
2023-04-16T15:19:21.812Z,13.30
2023-04-16T15:21:51.744Z,13.10
2023-04-16T15:24:19.980Z,13.50
2023-04-16T15:26:48.416Z,13.30
2023-04-16T15:29:17.389Z,13.40
2023-04-16T15:31:45.604Z,13.30
2023-04-16T15:34:14.338Z,13.30
2023-04-16T15:36:42.998Z,12.80
2023-04-16T15:39:12.826Z,13.10
2023-04-16T15:41:53.578Z,13.50
2023-04-16T15:44:28.011Z,13.50
2023-04-16T15:46:56.571Z,13.50
2023-04-16T15:49:24.899Z,12.60
2023-04-16T15:51:53.117Z,13.00
2023-04-16T15:54:22.861Z,12.50
2023-04-16T15:56:51.289Z,12.60
2023-04-16T15:59:19.726Z,13.20
2023-04-16T16:01:47.952Z,13.30
2023-04-16T16:04:16.471Z,13.50
2023-04-16T16:06:44.954Z,13.20
2023-04-16T16:09:13.389Z,13.30
2023-04-16T16:11:43.304Z,12.90
2023-04-16T16:14:11.849Z,13.30
2023-04-16T16:16:40.333Z,13.70
2023-04-16T16:19:08.717Z,13.70
2023-04-16T16:21:37.378Z,13.50
2023-04-16T16:24:05.807Z,13.30
2023-04-16T16:26:34.040Z,13.70
2023-04-16T16:29:03.555Z,13.70
2023-04-16T16:31:31.729Z,13.70
2023-04-16T16:33:59.926Z,13.60
2023-04-16T16:36:28.108Z,13.40
2023-04-16T16:38:57.133Z,13.40
2023-04-16T16:41:25.479Z,13.60
2023-04-16T16:43:56.191Z,13.70
2023-04-16T16:46:25.930Z,13.60
2023-04-16T16:48:54.081Z,13.60
2023-04-16T16:51:22.196Z,13.80
2023-04-16T16:53:50.287Z,13.70
2023-04-16T16:56:18.405Z,13.70
2023-04-16T16:58:46.475Z,13.40
2023-04-16T17:01:14.571Z,13.50
2023-04-16T17:03:44.349Z,13.30
2023-04-16T17:06:12.753Z,13.30
2023-04-16T17:08:41.070Z,13.60
2023-04-16T17:11:09.125Z,13.70
2023-04-16T17:13:37.269Z,14.10
2023-04-16T17:16:05.760Z,14.00
2023-04-16T17:18:33.922Z,13.80
2023-04-16T17:21:03.374Z,14.10
2023-04-16T17:23:31.469Z,14.30
2023-04-16T17:26:01.207Z,14.30
2023-04-16T17:28:29.471Z,14.50
2023-04-16T17:30:57.735Z,13.90
2023-04-16T17:33:25.991Z,14.00
2023-04-16T17:35:54.039Z,13.90
2023-04-16T17:38:23.497Z,14.20
2023-04-16T17:40:51.631Z,14.30
2023-04-16T17:43:19.732Z,14.30
2023-04-16T17:45:47.931Z,14.40
2023-04-16T17:48:16.143Z,14.20
2023-04-16T17:50:44.287Z,14.20
2023-04-16T17:53:12.392Z,14.30
2023-04-16T17:55:42.803Z,14.60
2023-04-16T17:58:10.871Z,14.80
2023-04-16T18:00:38.959Z,14.80
2023-04-16T18:03:09.783Z,14.70
2023-04-16T18:05:38.125Z,14.70
2023-04-16T18:08:06.604Z,14.30
2023-04-16T18:10:34.680Z,14.50
2023-04-16T18:13:04.092Z,14.50
2023-04-16T18:15:32.182Z,14.40
2023-04-16T18:18:00.419Z,14.20
2023-04-16T18:20:28.658Z,14.40
2023-04-16T18:22:56.894Z,14.50
2023-04-16T18:25:33.980Z,14.40
2023-04-16T18:28:06.261Z,14.20
2023-04-16T18:30:34.751Z,14.20
2023-04-16T18:35:33.888Z,14.30
2023-04-16T18:38:02.314Z,14.40
2023-04-16T18:40:30.515Z,14.50
2023-04-16T18:42:58.635Z,14.50
2023-04-16T18:45:28.494Z,14.60
2023-04-16T18:47:58.809Z,14.50
2023-04-16T18:50:29.135Z,14.50
2023-04-16T18:52:57.278Z,14.40
2023-04-16T18:55:25.445Z,14.50
2023-04-16T18:57:55.050Z,14.00
2023-04-16T19:00:23.414Z,14.10
2023-04-16T19:02:52.957Z,13.80
2023-04-16T19:05:21.744Z,13.70
2023-04-16T19:07:49.813Z,13.50
2023-04-16T19:10:18.006Z,13.80
2023-04-16T19:12:46.100Z,13.80
2023-04-16T19:15:14.864Z,14.00
2023-04-16T19:17:42.990Z,13.60
2023-04-16T19:20:12.907Z,13.70
2023-04-16T19:22:41.257Z,13.50
2023-04-16T19:25:10.396Z,13.40
2023-04-16T19:27:38.469Z,13.50
2023-04-16T19:30:07.848Z,13.70
2023-04-16T19:32:36.500Z,14.00
2023-04-16T19:35:04.960Z,14.30
2023-04-16T19:37:34.450Z,14.30
2023-04-16T19:40:02.698Z,14.30
2023-04-16T19:42:30.976Z,14.30
2023-04-16T19:44:59.124Z,14.30
2023-04-16T19:47:27.918Z,14.10
2023-04-16T19:49:56.201Z,14.20
2023-04-16T19:52:24.432Z,13.70
2023-04-16T19:54:56.721Z,14.10
2023-04-16T19:57:24.806Z,14.10
2023-04-16T19:59:54.663Z,14.00
2023-04-16T20:02:23.350Z,13.90
2023-04-16T20:04:53.112Z,14.00
2023-04-16T20:07:21.416Z,14.00
2023-04-16T20:09:49.686Z,14.30
2023-04-16T20:12:19.380Z,14.30
2023-04-16T20:14:48.307Z,14.20
2023-04-16T20:17:18.671Z,14.20
2023-04-16T20:19:49.671Z,13.90
2023-04-16T20:22:18.858Z,13.40
2023-04-16T20:24:48.373Z,13.40
2023-04-16T20:27:19.502Z,13.60
2023-04-16T20:29:47.620Z,13.70
2023-04-16T20:32:15.687Z,13.70
2023-04-16T20:34:43.799Z,13.90
2023-04-16T20:37:11.844Z,14.00
2023-04-16T20:39:40.663Z,14.00
2023-04-16T20:42:10.245Z,13.80
2023-04-16T20:44:41.303Z,13.70
2023-04-16T20:47:09.679Z,13.80
2023-04-16T20:49:38.433Z,13.80
2023-04-16T20:52:07.464Z,13.60
2023-04-16T20:54:35.632Z,13.70
2023-04-16T20:57:04.835Z,13.70
2023-04-16T20:59:33.193Z,13.70
2023-04-16T21:02:02.941Z,13.80
2023-04-16T21:04:31.784Z,13.80
2023-04-16T21:07:03.199Z,14.00
2023-04-16T21:09:31.580Z,14.10
2023-04-16T21:11:59.656Z,13.80
2023-04-16T21:14:27.861Z,13.50
2023-04-16T21:16:55.967Z,13.70
2023-04-16T21:19:25.445Z,13.50
2023-04-16T21:21:53.574Z,13.30
2023-04-16T21:24:21.674Z,13.30
2023-04-16T21:26:49.742Z,13.70
2023-04-16T21:29:17.991Z,13.30
2023-04-16T21:31:46.165Z,13.20
2023-04-16T21:34:14.390Z,13.60
2023-04-16T21:36:43.815Z,14.00
2023-04-16T21:39:12.271Z,14.10
2023-04-16T21:41:40.639Z,14.10
2023-04-16T21:44:08.774Z,14.20
2023-04-16T21:46:36.929Z,14.00
2023-04-16T21:49:05.051Z,13.70
2023-04-16T21:51:33.275Z,13.80
2023-04-16T21:54:02.738Z,13.90
2023-04-16T21:56:30.849Z,14.00
2023-04-16T21:58:58.958Z,14.00
2023-04-16T22:01:27.327Z,14.00
2023-04-16T22:03:55.788Z,14.10
2023-04-16T22:06:24.003Z,13.80
2023-04-16T22:08:53.500Z,13.30
2023-04-16T22:11:23.143Z,12.90
2023-04-16T22:13:51.910Z,13.30
2023-04-16T22:16:20.092Z,13.70
2023-04-16T22:18:48.483Z,13.80
2023-04-16T22:21:16.592Z,13.50
2023-04-16T22:23:44.746Z,13.70
2023-04-16T22:26:13.036Z,13.80
2023-04-16T22:28:42.476Z,13.80
2023-04-16T22:31:10.574Z,13.80
2023-04-16T22:33:38.658Z,14.10
2023-04-16T22:36:07.811Z,14.00
2023-04-16T22:38:36.994Z,13.80
2023-04-16T22:41:05.139Z,13.80
2023-04-16T22:43:35.005Z,13.90
2023-04-16T22:46:06.595Z,13.40
2023-04-16T22:48:36.317Z,13.20
2023-04-16T22:51:04.442Z,13.20
2023-04-16T22:53:32.633Z,13.20
2023-04-16T22:56:00.901Z,13.20
2023-04-16T22:58:29.002Z,13.70
2023-04-16T23:00:59.486Z,13.80
2023-04-16T23:03:29.330Z,13.70
2023-04-16T23:05:57.463Z,13.30
2023-04-16T23:08:25.732Z,13.20
2023-04-16T23:10:54.823Z,13.00
2023-04-16T23:13:22.989Z,12.70
2023-04-16T23:15:51.120Z,12.70
2023-04-16T23:18:19.223Z,12.80
2023-04-16T23:20:51.691Z,13.10
2023-04-16T23:23:19.819Z,13.20
2023-04-16T23:25:47.912Z,13.00
2023-04-16T23:28:16.009Z,12.90
2023-04-16T23:30:44.685Z,12.80
2023-04-16T23:33:12.844Z,12.70
2023-04-16T23:35:40.920Z,12.70
2023-04-16T23:38:12.848Z,12.90
2023-04-16T23:40:41.331Z,12.60
2023-04-16T23:43:09.483Z,12.20
2023-04-16T23:45:37.628Z,12.30
2023-04-16T23:48:06.034Z,12.10
2023-04-16T23:50:34.099Z,12.10
2023-04-16T23:53:02.224Z,12.30
2023-04-16T23:55:31.751Z,12.40
2023-04-16T23:57:59.832Z,12.70
